createdAt,value
2023-05-14T00:00:54.214Z,100835.28
2023-05-14T00:03:21.646Z,100847.63
2023-05-14T00:05:48.932Z,100837.31
2023-05-14T00:08:16.278Z,100840.56
2023-05-14T00:10:43.553Z,100840.84
2023-05-14T00:13:10.893Z,100836.56
2023-05-14T00:15:38.418Z,100830.13
2023-05-14T00:18:05.736Z,100836.03
2023-05-14T00:20:33.229Z,100829.06
2023-05-14T00:23:00.656Z,100819.88
2023-05-14T00:25:28.342Z,100827.69
2023-05-14T00:27:55.645Z,100819.09
2023-05-14T00:30:23.156Z,100815.66
2023-05-14T00:32:50.687Z,100828.00
2023-05-14T00:35:18.160Z,100819.66
2023-05-14T00:37:45.392Z,100803.56
2023-05-14T00:40:13.142Z,100814.59
2023-05-14T00:42:40.835Z,100803.28
2023-05-14T00:45:08.539Z,100804.38
2023-05-14T00:47:36.273Z,100796.84
2023-05-14T00:50:04.552Z,100798.19
2023-05-14T00:52:32.067Z,100790.97
2023-05-14T00:55:00.729Z,100779.13
2023-05-14T00:57:28.068Z,100789.38
2023-05-14T00:59:55.964Z,100784.22
2023-05-14T01:02:23.400Z,100786.59
2023-05-14T01:04:51.946Z,100792.28
2023-05-14T01:07:36.200Z,100798.44
2023-05-14T01:10:11.365Z,100798.72
2023-05-14T01:13:04.213Z,100804.38
2023-05-14T01:15:33.519Z,100807.59
2023-05-14T01:18:10.194Z,100810.81
2023-05-14T01:20:37.539Z,100805.47
2023-05-14T01:23:04.804Z,100807.34
2023-05-14T01:25:32.103Z,100783.97
2023-05-14T01:28:02.376Z,100771.06
2023-05-14T01:30:34.073Z,100767.59
2023-05-14T01:33:05.788Z,100758.16
2023-05-14T01:35:33.676Z,100761.94
2023-05-14T01:38:03.410Z,100758.78
2023-05-14T01:40:32.758Z,100766.56
2023-05-14T01:43:01.209Z,100771.09
2023-05-14T01:45:29.923Z,100767.31
2023-05-14T01:47:58.009Z,100774.03
2023-05-14T01:50:26.524Z,100779.94
2023-05-14T01:52:53.937Z,100777.50
2023-05-14T01:55:21.207Z,100783.97
2023-05-14T01:57:48.553Z,100781.50
2023-05-14T02:00:15.932Z,100792.06
2023-05-14T02:02:43.425Z,100792.56
2023-05-14T02:05:11.584Z,100793.38
2023-05-14T02:07:39.056Z,100790.41
2023-05-14T02:10:07.189Z,100800.09
2023-05-14T02:12:34.678Z,100790.44
2023-05-14T02:15:03.321Z,100797.41
2023-05-14T02:17:30.796Z,100794.75
2023-05-14T02:19:58.698Z,100801.19
2023-05-14T02:22:25.992Z,100797.13
2023-05-14T02:24:53.347Z,100800.56
2023-05-14T02:27:20.570Z,100800.31
2023-05-14T02:29:47.800Z,100807.06
2023-05-14T02:32:15.135Z,100804.38
2023-05-14T02:34:42.504Z,100803.06
2023-05-14T02:37:09.837Z,100794.69
2023-05-14T02:39:37.114Z,100788.84
2023-05-14T02:42:04.588Z,100796.66
2023-05-14T02:44:32.078Z,100792.09
2023-05-14T02:46:59.298Z,100784.06
2023-05-14T02:49:26.521Z,100787.81
2023-05-14T02:51:53.791Z,100777.94
2023-05-14T02:54:21.095Z,100774.16
2023-05-14T02:56:48.399Z,100783.53
2023-05-14T02:59:16.336Z,100785.19
2023-05-14T03:01:44.616Z,100783.84
2023-05-14T03:04:12.385Z,100775.78
2023-05-14T03:06:39.674Z,100779.25
2023-05-14T03:09:07.124Z,100783.31
2023-05-14T03:11:35.190Z,100784.09
2023-05-14T03:14:02.413Z,100792.69
2023-05-14T03:16:29.872Z,100786.25
2023-05-14T03:18:58.115Z,100784.66
2023-05-14T03:21:25.893Z,100780.91
2023-05-14T03:23:53.676Z,100792.69
2023-05-14T03:26:20.918Z,100788.66
2023-05-14T03:28:48.557Z,100784.38
2023-05-14T03:31:15.912Z,100786.28
2023-05-14T03:33:43.320Z,100775.25
2023-05-14T03:36:10.708Z,100784.09
2023-05-14T03:38:38.397Z,100787.00
2023-05-14T03:41:05.662Z,100786.97
2023-05-14T03:43:33.559Z,100785.94
2023-05-14T03:46:00.871Z,100779.53
2023-05-14T03:48:28.639Z,100771.75
2023-05-14T03:50:57.344Z,100769.59
2023-05-14T03:53:26.484Z,100769.59
2023-05-14T03:55:54.478Z,100771.47
2023-05-14T03:58:22.096Z,100781.34
2023-05-14T04:00:49.979Z,100786.22
2023-05-14T04:03:17.966Z,100785.13
2023-05-14T04:05:45.814Z,100790.69
2023-05-14T04:08:14.441Z,100785.94
2023-05-14T04:10:43.327Z,100786.28
2023-05-14T04:13:11.542Z,100788.56
2023-05-14T04:15:39.284Z,100792.28
2023-05-14T04:18:07.212Z,100789.75
2023-05-14T04:20:35.362Z,100789.84
2023-05-14T04:23:03.175Z,100790.22
2023-05-14T04:25:31.072Z,100792.09
2023-05-14T04:27:58.378Z,100795.94
2023-05-14T04:30:26.020Z,100797.09
2023-05-14T04:32:53.599Z,100788.34
2023-05-14T04:35:24.035Z,100785.41
2023-05-14T04:37:52.324Z,100776.53
2023-05-14T04:40:19.558Z,100793.28
2023-05-14T04:42:46.784Z,100781.94
2023-05-14T04:45:14.136Z,100773.56
2023-05-14T04:47:41.584Z,100766.13
2023-05-14T04:50:09.694Z,100763.19
2023-05-14T04:52:37.669Z,100765.38
2023-05-14T04:55:05.701Z,100766.84
2023-05-14T04:57:33.073Z,100762.06
2023-05-14T05:00:00.423Z,100771.41
2023-05-14T05:02:27.877Z,100775.53
2023-05-14T05:04:55.913Z,100777.16
2023-05-14T05:07:25.175Z,100784.22
2023-05-14T05:09:53.038Z,100786.25
2023-05-14T05:12:20.759Z,100790.50
2023-05-14T05:14:51.780Z,100795.81
2023-05-14T05:17:19.632Z,100793.03
2023-05-14T05:19:47.523Z,100789.72
2023-05-14T05:22:15.680Z,100801.53
2023-05-14T05:24:52.884Z,100789.09
2023-05-14T05:27:20.537Z,100797.75
2023-05-14T05:29:48.045Z,100799.94
2023-05-14T05:32:15.317Z,100798.34
2023-05-14T05:34:42.621Z,100808.03
2023-05-14T05:37:10.016Z,100801.81
2023-05-14T05:39:37.278Z,100801.03
2023-05-14T05:42:05.702Z,100802.06
2023-05-14T05:44:32.991Z,100793.38
2023-05-14T05:47:00.258Z,100797.59
2023-05-14T05:49:27.557Z,100804.47
2023-05-14T05:51:54.744Z,100807.19
2023-05-14T05:54:23.699Z,100809.03
2023-05-14T05:56:51.605Z,100806.34
2023-05-14T05:59:18.910Z,100807.38
2023-05-14T06:01:46.647Z,100803.31
2023-05-14T06:04:13.976Z,100817.13
2023-05-14T06:06:41.598Z,100817.19
2023-05-14T06:09:08.966Z,100831.59
2023-05-14T06:11:36.315Z,100835.94
2023-05-14T06:14:03.944Z,100834.63
2023-05-14T06:16:31.348Z,100837.22
2023-05-14T06:18:58.750Z,100855.00
2023-05-14T06:21:26.067Z,100859.31
2023-05-14T06:23:53.416Z,100863.84
2023-05-14T06:26:20.747Z,100871.88
2023-05-14T06:28:48.021Z,100878.94
2023-05-14T06:31:15.351Z,100888.66
2023-05-14T06:33:42.527Z,100890.50
2023-05-14T06:36:10.019Z,100892.91
2023-05-14T06:38:37.438Z,100897.81
2023-05-14T06:41:04.801Z,100893.22
2023-05-14T06:43:32.156Z,100897.28
2023-05-14T06:45:59.411Z,100902.34
2023-05-14T06:48:27.139Z,100904.78
2023-05-14T06:50:55.451Z,100905.84
2023-05-14T06:53:22.749Z,100904.50
2023-05-14T06:55:50.068Z,100894.84
2023-05-14T06:58:17.431Z,100894.09
2023-05-14T07:00:44.673Z,100903.47
2023-05-14T07:03:11.970Z,100912.59
2023-05-14T07:05:39.304Z,100910.63
2023-05-14T07:08:06.792Z,100918.69
2023-05-14T07:10:34.315Z,100911.19
2023-05-14T07:13:01.711Z,100917.09
2023-05-14T07:15:28.998Z,100917.31
2023-05-14T07:17:56.709Z,100907.88
2023-05-14T07:20:25.390Z,100912.75
2023-05-14T07:22:53.017Z,100905.78
2023-05-14T07:25:20.325Z,100901.19
2023-05-14T07:27:47.687Z,100910.34
2023-05-14T07:30:15.178Z,100895.00
2023-05-14T07:32:42.566Z,100895.22
2023-05-14T07:35:10.334Z,100894.44
2023-05-14T07:37:37.944Z,100895.22
2023-05-14T07:40:05.718Z,100893.34
2023-05-14T07:42:36.646Z,100895.41
2023-05-14T07:45:05.073Z,100886.84
2023-05-14T07:47:33.647Z,100882.84
2023-05-14T07:50:01.028Z,100882.25
2023-05-14T07:52:28.251Z,100881.13
2023-05-14T07:54:56.343Z,100884.34
2023-05-14T07:57:23.585Z,100881.66
2023-05-14T07:59:50.809Z,100885.16
2023-05-14T08:02:18.143Z,100879.44
2023-05-14T08:04:45.617Z,100886.34
2023-05-14T08:07:12.884Z,100877.56
2023-05-14T08:09:40.275Z,100880.81
2023-05-14T08:12:07.724Z,100890.84
2023-05-14T08:14:35.056Z,100875.94
2023-05-14T08:17:02.417Z,100876.34
2023-05-14T08:19:30.052Z,100871.38
2023-05-14T08:21:57.536Z,100872.13
2023-05-14T08:24:24.861Z,100869.44
2023-05-14T08:26:52.355Z,100868.84
2023-05-14T08:29:19.691Z,100859.72
2023-05-14T08:31:47.357Z,100866.16
2023-05-14T08:34:14.665Z,100855.41
2023-05-14T08:36:42.148Z,100849.31
2023-05-14T08:39:09.582Z,100850.56
2023-05-14T08:41:36.938Z,100851.81
2023-05-14T08:44:11.436Z,100850.94
2023-05-14T08:46:39.728Z,100852.16
2023-05-14T08:49:13.191Z,100852.63
2023-05-14T08:51:41.136Z,100851.59
2023-05-14T08:54:11.192Z,100848.91
2023-05-14T08:56:39.720Z,100846.22
2023-05-14T08:59:07.056Z,100829.78
2023-05-14T09:01:34.575Z,100828.50
2023-05-14T09:04:04.359Z,100826.34
2023-05-14T09:06:31.965Z,100834.88
2023-05-14T09:08:59.289Z,100836.72
2023-05-14T09:11:26.649Z,100837.56
2023-05-14T09:13:53.928Z,100824.91
2023-05-14T09:16:22.164Z,100830.19
2023-05-14T09:18:51.341Z,100822.97
2023-05-14T09:21:18.736Z,100827.56
2023-05-14T09:23:45.978Z,100836.16
2023-05-14T09:26:17.705Z,100825.75
2023-05-14T09:28:45.426Z,100827.13
2023-05-14T09:31:12.993Z,100815.00
2023-05-14T09:33:40.428Z,100815.25
2023-05-14T09:36:07.926Z,100807.06
2023-05-14T09:38:35.223Z,100805.25
2023-05-14T09:41:02.579Z,100794.69
2023-05-14T09:43:29.855Z,100795.72
2023-05-14T09:45:57.166Z,100770.13
2023-05-14T09:48:25.794Z,100767.69
2023-05-14T09:50:53.565Z,100760.97
2023-05-14T09:53:20.999Z,100752.06
2023-05-14T09:55:48.316Z,100744.59
2023-05-14T09:58:15.918Z,100755.25
2023-05-14T10:00:45.778Z,100763.06
2023-05-14T10:03:16.052Z,100759.78
2023-05-14T10:05:47.552Z,100759.88
2023-05-14T10:08:24.847Z,100748.75
2023-05-14T10:10:55.509Z,100750.25
2023-05-14T10:13:29.232Z,100756.44
2023-05-14T10:16:03.360Z,100749.22
2023-05-14T10:18:35.628Z,100729.47
2023-05-14T10:21:07.863Z,100733.56
2023-05-14T10:23:36.755Z,100722.38
2023-05-14T10:26:05.034Z,100718.13
2023-05-14T10:28:32.981Z,100709.19
2023-05-14T10:31:00.501Z,100702.28
2023-05-14T10:33:27.938Z,100702.72
2023-05-14T10:36:05.722Z,100706.50
2023-05-14T10:38:37.420Z,100696.50
2023-05-14T10:41:11.454Z,100679.16
2023-05-14T10:43:40.914Z,100672.47
2023-05-14T10:46:09.687Z,100657.34
2023-05-14T10:48:39.080Z,100676.13
2023-05-14T10:51:08.712Z,100669.06
2023-05-14T10:53:41.205Z,100656.34
2023-05-14T10:56:14.347Z,100653.88
2023-05-14T10:58:45.124Z,100656.81
2023-05-14T11:01:13.405Z,100649.03
2023-05-14T11:03:45.728Z,100649.00
2023-05-14T11:06:15.021Z,100625.09
2023-05-14T11:08:42.479Z,100612.19
2023-05-14T11:11:10.172Z,100611.34
2023-05-14T11:13:37.908Z,100611.69
2023-05-14T11:16:18.979Z,100612.84
2023-05-14T11:18:54.004Z,100596.28
2023-05-14T11:21:21.492Z,100589.09
2023-05-14T11:23:51.304Z,100603.09
2023-05-14T11:26:21.404Z,100605.38
2023-05-14T11:28:49.660Z,100614.44
2023-05-14T11:31:17.129Z,100617.63
2023-05-14T11:33:44.478Z,100639.94
2023-05-14T11:36:11.855Z,100640.13
2023-05-14T11:38:49.256Z,100652.06
2023-05-14T11:41:16.689Z,100650.78
2023-05-14T11:43:44.019Z,100646.34
2023-05-14T11:46:17.355Z,100635.50
2023-05-14T11:49:06.130Z,100620.66
2023-05-14T11:51:36.094Z,100601.84
2023-05-14T11:54:03.710Z,100597.53
2023-05-14T11:56:31.114Z,100603.75
2023-05-14T11:58:58.730Z,100595.63
2023-05-14T12:01:26.136Z,100606.16
2023-05-14T12:03:53.624Z,100598.50
2023-05-14T12:06:20.965Z,100596.41
2023-05-14T12:08:48.274Z,100608.22
2023-05-14T12:11:20.898Z,100599.09
2023-05-14T12:13:48.204Z,100594.19
2023-05-14T12:16:15.643Z,100592.88
2023-05-14T12:18:43.439Z,100584.78
2023-05-14T12:21:10.873Z,100575.03
2023-05-14T12:23:39.233Z,100575.38
2023-05-14T12:26:08.620Z,100571.84
2023-05-14T12:28:39.297Z,100564.84
2023-05-14T12:31:06.761Z,100561.81
2023-05-14T12:33:34.183Z,100556.22
2023-05-14T12:36:14.017Z,100543.94
2023-05-14T12:38:50.149Z,100530.22
2023-05-14T12:41:18.002Z,100513.63
2023-05-14T12:43:48.016Z,100506.94
2023-05-14T12:46:15.778Z,100514.41
2023-05-14T12:48:43.187Z,100515.03
2023-05-14T12:51:10.561Z,100525.22
2023-05-14T12:53:38.209Z,100519.66
2023-05-14T12:56:06.636Z,100513.78
2023-05-14T12:58:34.202Z,100513.63
2023-05-14T13:01:01.622Z,100510.09
2023-05-14T13:03:29.947Z,100498.31
2023-05-14T13:05:57.385Z,100491.63
2023-05-14T13:08:26.377Z,100495.91
2023-05-14T13:10:54.917Z,100493.22
2023-05-14T13:13:23.172Z,100496.38
2023-05-14T13:15:50.991Z,100487.44
2023-05-14T13:18:18.632Z,100483.63
2023-05-14T13:20:46.774Z,100485.81
2023-05-14T13:23:14.609Z,100489.22
2023-05-14T13:25:42.077Z,100479.31
2023-05-14T13:28:09.726Z,100470.22
2023-05-14T13:30:37.010Z,100468.00
2023-05-14T13:33:05.102Z,100459.56
2023-05-14T13:35:32.995Z,100450.00
2023-05-14T13:38:00.388Z,100447.91
2023-05-14T13:40:27.611Z,100445.16
2023-05-14T13:42:54.875Z,100440.53
2023-05-14T13:45:22.214Z,100434.69
2023-05-14T13:47:51.503Z,100434.81
2023-05-14T13:50:19.046Z,100439.81
2023-05-14T13:52:46.345Z,100441.09
2023-05-14T13:55:13.723Z,100444.13
2023-05-14T13:57:40.996Z,100446.84
2023-05-14T14:00:09.179Z,100444.59
2023-05-14T14:02:36.626Z,100437.44
2023-05-14T14:05:04.392Z,100429.50
2023-05-14T14:07:31.845Z,100430.13
2023-05-14T14:09:59.223Z,100439.69
2023-05-14T14:12:27.193Z,100445.09
2023-05-14T14:14:54.446Z,100450.69
2023-05-14T14:17:21.682Z,100446.69
2023-05-14T14:19:49.094Z,100442.88
2023-05-14T14:22:16.441Z,100431.41
2023-05-14T14:24:43.819Z,100422.97
2023-05-14T14:27:11.478Z,100420.09
2023-05-14T14:29:38.841Z,100431.41
2023-05-14T14:32:06.713Z,100447.19
2023-05-14T14:34:34.262Z,100446.38
2023-05-14T14:37:01.532Z,100452.16
2023-05-14T14:39:28.752Z,100462.03
2023-05-14T14:41:56.077Z,100464.91
2023-05-14T14:44:23.395Z,100466.66
2023-05-14T14:46:51.000Z,100459.66
2023-05-14T14:49:18.277Z,100465.06
2023-05-14T14:51:45.684Z,100461.56
2023-05-14T14:54:13.939Z,100461.56
2023-05-14T14:56:41.370Z,100466.19
2023-05-14T14:59:08.681Z,100460.94
2023-05-14T15:01:36.060Z,100457.56
2023-05-14T15:04:03.406Z,100453.91
2023-05-14T15:06:30.649Z,100441.66
2023-05-14T15:08:57.936Z,100442.44
2023-05-14T15:11:25.235Z,100451.19
2023-05-14T15:13:52.545Z,100436.84
2023-05-14T15:16:19.937Z,100440.69
2023-05-14T15:18:47.223Z,100436.53
2023-05-14T15:21:14.840Z,100433.66
2023-05-14T15:23:44.945Z,100432.88
2023-05-14T15:26:12.329Z,100416.78
2023-05-14T15:28:39.586Z,100419.00
2023-05-14T15:31:07.207Z,100428.09
2023-05-14T15:33:34.477Z,100414.56
2023-05-14T15:36:01.718Z,100424.44
2023-05-14T15:38:46.896Z,100420.28
2023-05-14T15:41:14.237Z,100430.50
2023-05-14T15:43:42.449Z,100433.19
2023-05-14T15:46:11.241Z,100437.19
2023-05-14T15:48:38.768Z,100442.59
2023-05-14T15:51:06.288Z,100434.59
2023-05-14T15:53:33.934Z,100438.59
2023-05-14T15:56:01.327Z,100438.44
2023-05-14T15:58:28.543Z,100444.34
2023-05-14T16:00:55.865Z,100437.03
2023-05-14T16:03:23.296Z,100433.22
2023-05-14T16:05:50.713Z,100431.03
2023-05-14T16:08:18.060Z,100428.16
2023-05-14T16:10:45.345Z,100429.81
2023-05-14T16:13:12.819Z,100432.50
2023-05-14T16:15:40.316Z,100429.69
2023-05-14T16:18:07.882Z,100427.56
2023-05-14T16:20:35.144Z,100434.94
2023-05-14T16:23:02.405Z,100422.97
2023-05-14T16:25:30.287Z,100423.84
2023-05-14T16:27:57.568Z,100428.78
2023-05-14T16:30:25.145Z,100425.75
2023-05-14T16:32:52.606Z,100416.94
2023-05-14T16:35:19.864Z,100406.88
2023-05-14T16:37:47.321Z,100411.88
2023-05-14T16:40:14.603Z,100400.88
2023-05-14T16:42:42.832Z,100408.09
2023-05-14T16:45:10.714Z,100402.59
2023-05-14T16:47:38.025Z,100397.16
2023-05-14T16:50:06.074Z,100395.75
2023-05-14T16:52:33.531Z,100396.50
2023-05-14T16:55:00.849Z,100394.72
2023-05-14T16:57:28.044Z,100392.59
2023-05-14T16:59:55.424Z,100392.97
2023-05-14T17:02:22.712Z,100390.94
2023-05-14T17:04:50.072Z,100394.00
2023-05-14T17:07:17.420Z,100394.56
2023-05-14T17:09:45.008Z,100402.75
2023-05-14T17:12:12.258Z,100409.78
2023-05-14T17:14:39.538Z,100401.47
2023-05-14T17:17:07.271Z,100405.88
2023-05-14T17:19:34.579Z,100403.97
2023-05-14T17:22:02.059Z,100399.97
2023-05-14T17:24:29.334Z,100408.84
2023-05-14T17:26:56.862Z,100409.25
2023-05-14T17:29:24.224Z,100408.19
2023-05-14T17:31:51.854Z,100400.25
2023-05-14T17:34:19.256Z,100393.50
2023-05-14T17:36:46.625Z,100400.47
2023-05-14T17:39:14.028Z,100395.91
2023-05-14T17:41:41.595Z,100402.81
2023-05-14T17:44:10.720Z,100401.53
2023-05-14T17:46:40.255Z,100393.13
2023-05-14T17:49:07.682Z,100395.91
2023-05-14T17:51:35.324Z,100392.06
2023-05-14T17:54:02.710Z,100393.03
2023-05-14T17:56:30.240Z,100392.06
2023-05-14T17:58:57.671Z,100380.59
2023-05-14T18:01:25.021Z,100373.75
2023-05-14T18:03:52.530Z,100363.09
2023-05-14T18:06:19.987Z,100363.06
2023-05-14T18:08:47.241Z,100373.56
2023-05-14T18:11:14.568Z,100379.13
2023-05-14T18:13:41.854Z,100383.44
2023-05-14T18:16:09.167Z,100389.78
2023-05-14T18:18:36.614Z,100389.63
2023-05-14T18:21:04.092Z,100396.31
2023-05-14T18:23:31.502Z,100392.47
2023-05-14T18:25:59.623Z,100387.22
2023-05-14T18:28:27.860Z,100387.84
2023-05-14T18:30:55.194Z,100388.25
2023-05-14T18:33:22.442Z,100372.97
2023-05-14T18:35:49.726Z,100380.44
2023-05-14T18:38:17.102Z,100372.97
2023-05-14T18:40:44.492Z,100376.44
2023-05-14T18:43:11.766Z,100375.03
2023-05-14T18:45:39.830Z,100387.91
2023-05-14T18:48:07.264Z,100382.34
2023-05-14T18:50:34.601Z,100389.00
2023-05-14T18:53:02.061Z,100392.81
2023-05-14T18:55:29.487Z,100391.38
2023-05-14T18:57:56.987Z,100382.78
2023-05-14T19:00:24.531Z,100374.38
2023-05-14T19:02:51.936Z,100362.63
2023-05-14T19:05:19.609Z,100366.38
2023-05-14T19:07:47.096Z,100366.91
2023-05-14T19:10:14.845Z,100367.53
2023-05-14T19:12:42.325Z,100373.41
2023-05-14T19:15:10.091Z,100372.69
2023-05-14T19:17:37.502Z,100374.13
2023-05-14T19:20:06.229Z,100374.59
2023-05-14T19:22:33.920Z,100385.09
2023-05-14T19:25:01.432Z,100384.44
2023-05-14T19:27:29.329Z,100384.75
2023-05-14T19:29:56.998Z,100395.56
2023-05-14T19:32:24.291Z,100389.53
2023-05-14T19:34:51.744Z,100395.44
2023-05-14T19:37:19.190Z,100388.31
2023-05-14T19:39:47.162Z,100384.28
2023-05-14T19:42:15.574Z,100374.13
2023-05-14T19:44:43.056Z,100361.88
2023-05-14T19:47:10.830Z,100364.47
2023-05-14T19:49:38.317Z,100362.88
2023-05-14T19:52:06.077Z,100365.38
2023-05-14T19:54:33.386Z,100366.81
2023-05-14T19:57:01.676Z,100359.88
2023-05-14T19:59:30.154Z,100356.94
2023-05-14T20:01:57.370Z,100354.22
2023-05-14T20:04:24.825Z,100345.47
2023-05-14T20:06:52.646Z,100346.56
2023-05-14T20:09:20.071Z,100337.53
2023-05-14T20:11:48.136Z,100329.13
2023-05-14T20:14:15.392Z,100324.34
2023-05-14T20:16:42.966Z,100322.75
2023-05-14T20:19:10.385Z,100300.63
2023-05-14T20:21:38.950Z,100317.97
2023-05-14T20:24:06.473Z,100302.38
2023-05-14T20:26:33.982Z,100307.31
2023-05-14T20:29:01.304Z,100300.88
2023-05-14T20:31:28.902Z,100291.31
2023-05-14T20:33:56.350Z,100300.47
2023-05-14T20:36:23.828Z,100299.66
2023-05-14T20:38:51.179Z,100288.88
2023-05-14T20:41:18.415Z,100282.81
2023-05-14T20:43:45.784Z,100294.06
2023-05-14T20:46:13.235Z,100275.00
2023-05-14T20:48:40.583Z,100276.75
2023-05-14T20:51:07.928Z,100271.31
2023-05-14T20:53:36.099Z,100270.41
2023-05-14T20:56:03.490Z,100266.69
2023-05-14T20:58:30.953Z,100284.50
2023-05-14T21:00:59.260Z,100271.66
2023-05-14T21:03:35.483Z,100271.94
2023-05-14T21:06:02.920Z,100274.44
2023-05-14T21:08:30.673Z,100264.19
2023-05-14T21:10:58.123Z,100260.50
2023-05-14T21:13:25.441Z,100265.38
2023-05-14T21:15:53.044Z,100270.59
2023-05-14T21:18:20.452Z,100271.09
2023-05-14T21:20:47.938Z,100278.41
2023-05-14T21:23:15.237Z,100274.44
2023-05-14T21:25:42.541Z,100270.28
2023-05-14T21:28:09.864Z,100267.25
2023-05-14T21:30:37.207Z,100274.88
2023-05-14T21:33:05.119Z,100281.38
2023-05-14T21:35:32.711Z,100286.25
2023-05-14T21:38:00.205Z,100271.69
2023-05-14T21:40:27.538Z,100279.88
2023-05-14T21:42:54.852Z,100291.13
2023-05-14T21:45:23.610Z,100281.72
2023-05-14T21:47:51.650Z,100288.59
2023-05-14T21:50:18.932Z,100294.06
2023-05-14T21:52:46.206Z,100295.34
2023-05-14T21:55:13.995Z,100299.44
2023-05-14T21:57:41.433Z,100308.84
2023-05-14T22:00:09.101Z,100301.53
2023-05-14T22:02:36.822Z,100310.56
2023-05-14T22:05:04.572Z,100306.28
2023-05-14T22:07:32.745Z,100298.63
2023-05-14T22:10:00.034Z,100299.13
2023-05-14T22:12:27.627Z,100308.44
2023-05-14T22:14:54.962Z,100299.63
2023-05-14T22:17:22.225Z,100295.03
2023-05-14T22:19:49.501Z,100303.25
2023-05-14T22:22:16.729Z,100292.19
2023-05-14T22:24:44.197Z,100288.84
2023-05-14T22:27:11.435Z,100278.69
2023-05-14T22:29:38.971Z,100284.88
2023-05-14T22:32:06.758Z,100281.25
2023-05-14T22:34:34.099Z,100276.00
2023-05-14T22:37:01.566Z,100284.06
2023-05-14T22:39:29.282Z,100286.28
2023-05-14T22:41:56.576Z,100289.59
2023-05-14T22:44:24.178Z,100285.47
2023-05-14T22:46:51.698Z,100282.91
2023-05-14T22:49:19.027Z,100276.91
2023-05-14T22:51:46.215Z,100271.31
2023-05-14T22:54:14.393Z,100258.25
2023-05-14T22:56:41.692Z,100250.00
2023-05-14T22:59:08.930Z,100240.03
2023-05-14T23:01:36.219Z,100223.69
2023-05-14T23:04:03.616Z,100214.16
2023-05-14T23:06:31.192Z,100200.50
2023-05-14T23:08:58.490Z,100184.34
2023-05-14T23:11:26.906Z,100169.69
2023-05-14T23:13:54.703Z,100171.06
2023-05-14T23:16:22.208Z,100171.22
2023-05-14T23:18:49.750Z,100171.13
2023-05-14T23:21:17.186Z,100175.28
2023-05-14T23:23:44.459Z,100161.56
2023-05-14T23:26:11.765Z,100150.72
2023-05-14T23:28:39.230Z,100142.34
2023-05-14T23:31:06.562Z,100146.41
2023-05-14T23:33:33.770Z,100145.63
2023-05-14T23:36:01.229Z,100136.25
2023-05-14T23:38:28.526Z,100153.84
2023-05-14T23:40:55.774Z,100162.22
2023-05-14T23:43:23.200Z,100176.13
2023-05-14T23:45:50.559Z,100160.44
2023-05-14T23:48:18.255Z,100157.31
2023-05-14T23:50:45.530Z,100170.59
2023-05-14T23:53:12.924Z,100159.66
2023-05-14T23:55:40.439Z,100147.34
2023-05-14T23:58:08.161Z,100156.81
